Time;durP1;ratioP1;P1;durP2;ratioP2;P2;SDS_P1;SDS_P2;PMS_P1;PMS_P2;Temp;Humidity;BMP_temperature;BMP_pressure;BME280_temperature;BME280_humidity;BME280_pressure;Samples;Min_cycle;Max_cycle;Signal;HPM_P1;HPM_P2
2021/07/01 00:02:02;;;;;;;;;19.67;19.67;;;;;33.97;30.06;100518.87;144176;663;131012;-70
2021/07/01 00:04:32;;;;;;;;;22.00;19.67;;;;;33.84;30.15;100509.66;144147;613;132014;-70
2021/07/01 00:07:02;;;;;;;;;20.00;19.33;;;;;33.81;30.66;100505.56;144173;618;131021;-71
2021/07/01 00:09:32;;;;;;;;;19.00;19.00;;;;;33.82;30.98;100500.78;144164;649;132907;-73
2021/07/01 00:12:02;;;;;;;;;20.00;20.00;;;;;33.81;30.87;100496.34;144170;569;132008;-71
2021/07/01 00:14:32;;;;;;;;;20.33;19.33;;;;;33.82;31.39;100507.19;144144;588;132908;-72
2021/07/01 00:17:03;;;;;;;;;18.00;17.33;;;;;33.87;31.68;100508.94;144158;592;131021;-70
2021/07/01 00:19:33;;;;;;;;;22.00;22.00;;;;;33.94;32.07;100509.19;144157;566;131907;-70
2021/07/01 00:22:03;;;;;;;;;21.00;21.00;;;;;34.07;31.70;100506.41;144175;570;131013;-70
2021/07/01 00:24:33;;;;;;;;;19.67;19.67;;;;;34.11;31.64;100513.72;144154;559;132019;-72
2021/07/01 00:27:04;;;;;;;;;25.00;24.00;;;;;34.14;31.25;100515.03;144176;622;132012;-74
2021/07/01 00:29:34;;;;;;;;;24.00;24.00;;;;;34.13;32.14;100519.84;144156;569;131017;-75
2021/07/01 00:32:05;;;;;;;;;22.00;21.67;;;;;34.11;31.62;100519.34;144175;564;131039;-74
2021/07/01 00:34:35;;;;;;;;;21.33;20.33;;;;;34.07;32.23;100528.84;144173;600;132018;-71
2021/07/01 00:37:06;;;;;;;;;17.67;17.67;;;;;34.02;31.24;100510.25;144173;614;131020;-72
2021/07/01 00:39:36;;;;;;;;;22.67;22.00;;;;;33.95;31.60;100515.59;144153;588;131906;-72
2021/07/01 00:42:07;;;;;;;;;24.67;22.00;;;;;33.91;31.60;100509.06;144153;603;131020;-70
2021/07/01 00:44:37;;;;;;;;;19.33;18.67;;;;;33.86;31.08;100505.34;144155;572;131907;-66
2021/07/01 00:47:07;;;;;;;;;21.67;19.67;;;;;33.78;31.45;100511.06;144178;571;131012;-69
2021/07/01 00:49:37;;;;;;;;;15.33;15.33;;;;;33.72;30.86;100499.25;144157;567;131014;-70
2021/07/01 00:52:07;;;;;;;;;21.33;19.00;;;;;33.67;31.11;100494.72;144176;575;131013;-70
2021/07/01 00:54:38;;;;;;;;;22.00;21.33;;;;;33.64;31.18;100494.59;144150;618;132906;-68
2021/07/01 00:57:10;;;;;;;;;16.67;16.67;;;;;33.59;31.16;100484.41;144174;644;131020;-69
2021/07/01 00:59:40;;;;;;;;;23.67;22.67;;;;;33.55;31.21;100475.06;144169;634;132012;-69
2021/07/01 01:02:10;;;;;;;;;17.67;17.67;;;;;33.55;30.86;100475.06;144170;602;132012;-69
2021/07/01 01:04:40;;;;;;;;;19.67;18.67;;;;;33.52;30.60;100467.37;144150;622;132014;-69
2021/07/01 01:07:10;;;;;;;;;20.00;20.00;;;;;33.48;30.96;100470.03;144155;592;132011;-69
2021/07/01 01:09:40;;;;;;;;;20.67;18.00;;;;;33.47;31.40;100461.97;144152;589;132020;-69
2021/07/01 01:12:10;;;;;;;;;21.00;19.00;;;;;33.43;31.97;100459.03;144176;570;132010;-71
2021/07/01 01:14:41;;;;;;;;;21.00;20.00;;;;;33.42;31.80;100458.22;144157;565;132013;-68
2021/07/01 01:17:11;;;;;;;;;21.00;19.33;;;;;33.45;31.89;100459.53;144173;617;132012;-70
2021/07/01 01:19:42;;;;;;;;;17.00;16.33;;;;;33.52;32.09;100453.34;144165;584;131907;-70
2021/07/01 01:22:12;;;;;;;;;24.00;20.33;;;;;33.55;31.93;100458.25;144173;714;131021;-70
2021/07/01 01:24:42;;;;;;;;;19.00;18.33;;;;;33.52;31.84;100442.12;144159;591;132021;-73
2021/07/01 01:27:12;;;;;;;;;18.67;18.33;;;;;33.47;31.82;100443.19;144172;596;132012;-72
2021/07/01 01:29:45;;;;;;;;;21.00;20.67;;;;;33.44;32.21;100446.69;144148;634;132013;-70
2021/07/01 01:32:15;;;;;;;;;26.00;23.33;;;;;33.41;32.77;100441.75;144160;572;132008;-69
2021/07/01 01:34:45;;;;;;;;;19.33;19.33;;;;;33.33;32.55;100437.91;144153;564;132907;-71
2021/07/01 01:37:16;;;;;;;;;19.33;18.00;;;;;33.30;32.46;100430.19;144175;624;132011;-70
2021/07/01 01:39:48;;;;;;;;;21.33;20.67;;;;;33.30;32.81;100435.78;144160;678;132012;-70
2021/07/01 01:42:19;;;;;;;;;20.33;19.00;;;;;33.34;32.04;100425.53;144177;563;132012;-75
2021/07/01 01:44:49;;;;;;;;;23.33;22.00;;;;;33.44;31.89;100419.47;144153;576;132013;-72
2021/07/01 01:47:21;;;;;;;;;24.33;22.33;;;;;33.51;31.86;100413.28;144172;591;131020;-69
2021/07/01 01:49:51;;;;;;;;;11.00;9.67;;;;;33.49;31.68;100428.84;144165;588;132014;-70
2021/07/01 01:52:21;;;;;;;;;26.00;24.00;;;;;33.47;32.70;100431.13;144172;574;132010;-69
2021/07/01 01:54:53;;;;;;;;;20.33;18.00;;;;;33.47;32.70;100425.53;144156;567;132012;-72
2021/07/01 01:57:27;;;;;;;;;18.67;18.33;;;;;33.40;31.95;100435.31;144160;570;131022;-71
2021/07/01 01:59:57;;;;;;;;;24.67;22.33;;;;;33.39;32.38;100444.91;144160;672;132907;-71
2021/07/01 02:02:27;;;;;;;;;21.67;21.67;;;;;33.38;32.06;100443.28;144176;574;131020;-71
2021/07/01 02:04:57;;;;;;;;;17.00;16.33;;;;;33.40;31.34;100443.72;144162;645;132907;-72
2021/07/01 02:07:28;;;;;;;;;21.00;20.00;;;;;33.36;30.97;100433.56;144172;611;132013;-72
2021/07/01 02:09:58;;;;;;;;;18.00;18.00;;;;;33.27;30.79;100447.69;144152;610;132012;-73
2021/07/01 02:12:29;;;;;;;;;19.00;17.00;;;;;33.21;30.88;100440.69;144174;633;132012;-73
2021/07/01 02:15:00;;;;;;;;;14.67;14.67;;;;;33.12;30.86;100441.59;144162;613;132907;-71
2021/07/01 02:17:30;;;;;;;;;17.67;17.67;;;;;33.04;30.92;100445.34;144180;573;132010;-70
2021/07/01 02:20:20;;;;;;;;;20.67;19.00;;;;;33.03;31.54;100446.50;144151;643;133016;-68
2021/07/01 02:22:51;;;;;;;;;18.00;18.00;;;;;32.68;31.98;100441.22;144158;625;132009;-68
2021/07/01 02:25:21;;;;;;;;;22.33;18.67;;;;;32.58;31.74;100446.09;144152;609;133907;-71
2021/07/01 02:27:52;;;;;;;;;15.67;15.67;;;;;32.53;31.61;100442.72;144169;597;132010;-71
2021/07/01 02:30:22;;;;;;;;;18.33;18.33;;;;;32.55;31.52;100445.97;144153;649;132021;-73
2021/07/01 02:32:52;;;;;;;;;18.00;17.00;;;;;32.52;31.34;100439.09;144171;605;132010;-71
2021/07/01 02:35:22;;;;;;;;;20.67;18.67;;;;;32.52;31.69;100441.06;144154;563;132020;-69
2021/07/01 02:37:52;;;;;;;;;18.00;18.00;;;;;32.51;31.96;100445.00;144175;659;131021;-69
2021/07/01 02:40:22;;;;;;;;;23.33;21.00;;;;;32.50;31.61;100447.00;144166;640;132020;-72
2021/07/01 02:42:53;;;;;;;;;18.33;17.67;;;;;32.52;31.92;100447.47;144170;564;131020;-71
2021/07/01 02:45:23;;;;;;;;;16.33;15.67;;;;;32.56;31.50;100445.62;144160;564;132013;-73
2021/07/01 02:47:53;;;;;;;;;19.00;18.00;;;;;32.58;30.80;100451.69;144157;584;132010;-72
2021/07/01 02:50:26;;;;;;;;;16.67;15.67;;;;;32.58;31.21;100446.09;144153;563;132020;-72
2021/07/01 02:52:56;;;;;;;;;18.00;17.67;;;;;32.65;31.29;100450.34;144177;592;132010;-75
2021/07/01 02:55:26;;;;;;;;;18.60;17.00;;;;;32.73;30.43;100457.81;144148;605;133012;-74
2021/07/01 02:57:56;;;;;;;;;19.67;19.33;;;;;33.14;30.28;100450.47;144178;585;132010;-74
2021/07/01 03:00:26;;;;;;;;;20.33;19.33;;;;;33.28;29.49;100452.12;144149;564;133010;-73
2021/07/01 03:02:56;;;;;;;;;14.00;14.00;;;;;33.31;29.46;100459.84;144173;601;131022;-72
2021/07/01 03:05:27;;;;;;;;;16.67;16.67;;;;;33.30;29.75;100455.41;144164;577;132014;-75
2021/07/01 03:07:57;;;;;;;;;12.33;12.00;;;;;33.34;29.84;100456.34;144174;590;132010;-76
2021/07/01 03:10:27;;;;;;;;;21.00;17.00;;;;;33.33;29.43;100457.53;144153;594;133016;-77
2021/07/01 03:12:59;;;;;;;;;18.67;17.67;;;;;33.29;29.31;100463.00;144156;570;132011;-76
2021/07/01 03:15:29;;;;;;;;;16.00;16.00;;;;;33.24;29.02;100462.41;144147;564;132014;-71
2021/07/01 03:17:59;;;;;;;;;20.67;18.33;;;;;33.21;28.87;100460.31;144169;641;131020;-71
2021/07/01 03:20:30;;;;;;;;;18.67;18.00;;;;;33.22;29.56;100465.53;144153;575;132040;-71
2021/07/01 03:23:02;;;;;;;;;16.33;16.33;;;;;33.24;29.77;100463.22;144173;617;131023;-68
2021/07/01 03:25:32;;;;;;;;;14.00;12.00;;;;;33.24;29.55;100462.41;144146;575;132020;-69
2021/07/01 03:28:03;;;;;;;;;19.00;17.33;;;;;32.80;30.25;100463.69;144169;566;132011;-73
2021/07/01 03:30:33;;;;;;;;;16.33;15.67;;;;;32.59;30.60;100458.94;144164;569;131907;-71
2021/07/01 03:33:03;;;;;;;;;17.00;17.00;;;;;33.24;29.68;100473.63;144173;624;132010;-72
2021/07/01 03:35:33;;;;;;;;;17.00;17.00;;;;;33.35;29.57;100474.81;144152;574;133016;-72
2021/07/01 03:38:03;;;;;;;;;17.67;17.67;;;;;33.37;29.99;100472.47;144154;619;132008;-73
2021/07/01 03:40:33;;;;;;;;;17.33;16.67;;;;;33.31;30.11;100466.28;144153;589;132907;-71
2021/07/01 03:43:03;;;;;;;;;18.00;18.00;;;;;33.30;30.76;100463.81;144171;683;131021;-71
2021/07/01 03:45:33;;;;;;;;;15.67;15.00;;;;;33.25;30.68;100467.69;144152;566;132030;-69
2021/07/01 03:48:04;;;;;;;;;22.00;20.33;;;;;33.15;30.86;100468.13;144173;656;132012;-69
2021/07/01 03:50:34;;;;;;;;;22.00;19.33;;;;;33.09;30.45;100464.72;144150;592;131907;-70
2021/07/01 03:53:05;;;;;;;;;21.00;18.00;;;;;33.10;30.66;100466.34;144167;662;132012;-70
2021/07/01 03:55:35;;;;;;;;;16.67;16.67;;;;;33.09;30.32;100467.53;144161;563;132012;-71
2021/07/01 03:58:05;;;;;;;;;17.33;17.33;;;;;33.24;30.33;100454.00;144171;570;132001;-71
2021/07/01 04:00:36;;;;;;;;;19.50;19.25;;;;;32.78;31.81;100449.22;144150;624;131907;-70
2021/07/01 04:03:06;;;;;;;;;23.00;21.33;;;;;32.60;32.92;100445.75;144159;602;131020;-71
2021/07/01 04:05:36;;;;;;;;;18.00;17.33;;;;;32.63;32.11;100455.47;144148;708;132015;-70
2021/07/01 04:08:06;;;;;;;;;19.67;18.67;;;;;32.73;32.22;100463.41;144174;578;131021;-71
2021/07/01 04:10:36;;;;;;;;;17.67;17.67;;;;;32.83;31.62;100457.37;144150;716;132907;-70
2021/07/01 04:13:07;;;;;;;;;18.33;17.00;;;;;32.89;31.91;100450.44;144172;571;131030;-70
2021/07/01 04:15:37;;;;;;;;;25.00;24.00;;;;;32.99;31.46;100453.94;144156;615;132017;-71
2021/07/01 04:18:15;;;;;;;;;20.67;19.00;;;;;33.08;31.73;100456.66;144172;681;132010;-75
2021/07/01 04:20:46;;;;;;;;;28.75;28.00;;;;;33.10;32.01;100454.31;144167;639;131017;-73
2021/07/01 04:23:16;;;;;;;;;23.67;20.67;;;;;33.12;31.68;100452.00;144170;618;131020;-72
2021/07/01 04:25:50;;;;;;;;;50.00;37.75;;;;;33.19;32.08;100454.25;144157;580;132012;-71
2021/07/01 04:28:20;;;;;;;;;20.67;19.00;;;;;33.25;32.37;100459.28;144159;595;131021;-70
2021/07/01 04:30:51;;;;;;;;;18.33;17.00;;;;;33.29;32.00;100457.41;144156;584;132907;-70
2021/07/01 04:33:21;;;;;;;;;21.00;21.00;;;;;33.36;32.42;100454.03;144176;591;132012;-72
2021/07/01 04:35:51;;;;;;;;;18.33;18.33;;;;;33.45;32.95;100459.53;144154;567;132907;-72
2021/07/01 04:38:21;;;;;;;;;22.33;20.67;;;;;33.57;32.13;100461.53;144172;663;131020;-73
2021/07/01 04:40:51;;;;;;;;;27.33;25.33;;;;;33.69;32.88;100458.72;144157;585;131907;-72
2021/07/01 04:43:25;;;;;;;;;22.67;22.00;;;;;33.82;33.61;100462.31;144167;628;132010;-71
2021/07/01 04:45:56;;;;;;;;;19.33;19.33;;;;;33.94;33.14;100469.91;144162;677;132906;-71
2021/07/01 04:48:26;;;;;;;;;23.00;21.00;;;;;34.08;33.19;100468.75;144169;599;131020;-77
2021/07/01 04:50:56;;;;;;;;;22.00;22.00;;;;;34.21;33.53;100464.75;144153;587;132016;-76
2021/07/01 04:53:26;;;;;;;;;21.00;21.00;;;;;34.35;33.17;100474.75;144157;597;131020;-74
2021/07/01 04:55:56;;;;;;;;;21.67;21.33;;;;;34.48;33.10;100464.31;144152;569;131907;-74
2021/07/01 04:58:26;;;;;;;;;16.00;15.33;;;;;34.61;32.93;100468.72;144178;565;131021;-74
2021/07/01 05:00:56;;;;;;;;;25.33;24.33;;;;;34.76;33.19;100458.69;144148;597;132016;-74
2021/07/01 05:03:27;;;;;;;;;26.00;23.33;;;;;35.14;32.09;100462.12;144169;602;132020;-74
2021/07/01 05:05:57;;;;;;;;;21.33;19.67;;;;;34.94;32.72;100463.97;144150;599;132907;-74
2021/07/01 05:08:30;;;;;;;;;25.67;24.33;;;;;35.02;32.49;100470.59;144172;680;131021;-74
2021/07/01 05:11:00;;;;;;;;;24.00;23.33;;;;;35.11;32.86;100477.75;144163;628;132906;-74
2021/07/01 05:13:30;;;;;;;;;25.33;25.00;;;;;35.84;31.93;100465.47;144168;716;131022;-75
2021/07/01 05:16:00;;;;;;;;;29.67;26.33;;;;;36.07;31.45;100476.03;144154;597;132016;-74
2021/07/01 05:18:30;;;;;;;;;21.33;21.00;;;;;35.87;31.70;100478.81;144154;559;132010;-78
2021/07/01 05:21:01;;;;;;;;;28.33;27.00;;;;;35.70;31.91;100471.56;144149;686;132907;-78
2021/07/01 05:23:31;;;;;;;;;21.33;20.33;;;;;35.65;31.74;100475.47;144171;570;131020;-78
2021/07/01 05:26:01;;;;;;;;;27.33;25.33;;;;;36.30;30.82;100464.88;144154;597;131907;-79
2021/07/01 05:28:31;;;;;;;;;25.33;25.33;;;;;36.08;31.38;100469.22;144176;591;131012;-75
2021/07/01 05:31:01;;;;;;;;;22.33;22.33;;;;;35.99;31.43;100460.97;144151;707;131907;-79
2021/07/01 05:33:31;;;;;;;;;26.00;25.67;;;;;35.98;31.18;100464.97;144168;577;132010;-74
2021/07/01 05:36:01;;;;;;;;;25.67;24.67;;;;;36.09;31.10;100453.97;144161;579;132014;-73
2021/07/01 05:38:32;;;;;;;;;27.67;26.67;;;;;36.29;31.19;100449.19;144177;581;131028;-73
2021/07/01 05:41:02;;;;;;;;;25.00;25.00;;;;;36.37;30.69;100448.16;144159;624;132020;-74
2021/07/01 05:43:33;;;;;;;;;21.00;21.00;;;;;36.41;30.82;100453.84;144157;570;131021;-72
2021/07/01 05:46:03;;;;;;;;;23.67;22.00;;;;;36.50;30.47;100450.81;144154;710;131016;-74
2021/07/01 05:48:33;;;;;;;;;21.00;21.00;;;;;36.57;30.21;100455.78;144171;569;132012;-76
2021/07/01 05:51:05;;;;;;;;;22.00;21.33;;;;;36.68;30.26;100451.19;144158;674;132012;-74
2021/07/01 05:56:26;;;;;;;;;28.33;28.00;;;;;36.89;30.37;100450.75;144153;576;131018;-71
2021/07/01 05:58:56;;;;;;;;;26.25;24.00;;;;;36.99;30.34;100449.31;144171;578;131036;-80
2021/07/01 06:01:26;;;;;;;;;27.67;26.67;;;;;37.08;30.08;100452.75;144162;580;132016;-81
2021/07/01 06:03:56;;;;;;;;;18.00;18.00;;;;;37.10;29.85;100460.84;144170;668;132010;-76
2021/07/01 06:06:27;;;;;;;;;27.00;25.25;;;;;36.96;30.09;100456.53;144155;572;132907;-77
2021/07/01 06:09:01;;;;;;;;;30.00;29.00;;;;;36.99;30.54;100452.16;144153;625;132010;-77
2021/07/01 06:11:33;;;;;;;;;6.33;5.33;;;;;37.10;31.39;100453.19;144159;580;132907;-78
2021/07/01 06:14:07;;;;;;;;;27.67;27.00;;;;;37.10;31.54;100450.37;144172;682;131021;-75
2021/07/01 06:16:39;;;;;;;;;24.67;23.33;;;;;37.13;31.48;100445.16;144154;626;131907;-76
2021/07/01 06:19:09;;;;;;;;;31.33;29.67;;;;;37.22;31.10;100442.91;144175;579;132010;-78
2021/07/01 06:21:41;;;;;;;;;23.33;22.00;;;;;37.25;31.98;100442.16;144150;619;133017;-73
2021/07/01 06:24:12;;;;;;;;;28.67;27.00;;;;;37.31;31.57;100429.38;144172;563;132010;-78
2021/07/01 06:26:44;;;;;;;;;27.67;27.33;;;;;37.38;32.15;100452.03;144168;571;131907;-73
2021/07/01 06:29:16;;;;;;;;;26.00;25.25;;;;;37.33;32.50;100451.53;144171;586;131998;-74
2021/07/01 06:31:47;;;;;;;;;21.33;20.67;;;;;37.20;33.18;100459.41;144156;565;131907;-79
2021/07/01 06:34:17;;;;;;;;;28.33;28.33;;;;;37.19;33.47;100463.41;144156;618;131021;-79
2021/07/01 06:36:51;;;;;;;;;29.00;26.00;;;;;37.06;33.40;100463.59;144158;571;132907;-75
2021/07/01 06:39:24;;;;;;;;;31.00;28.00;;;;;37.04;33.39;100468.78;144168;575;132012;-84
2021/07/01 06:41:56;;;;;;;;;26.33;25.67;;;;;37.01;33.64;100469.53;144155;644;131907;-83
2021/07/01 06:44:28;;;;;;;;;27.00;27.00;;;;;37.02;33.61;100473.12;144170;596;132008;-83
2021/07/01 06:46:58;;;;;;;;;30.00;29.00;;;;;37.09;33.52;100481.78;144153;624;131022;-83
2021/07/01 06:49:32;;;;;;;;;28.67;26.67;;;;;37.21;33.05;100472.31;144176;601;132010;-83
2021/07/01 06:52:05;;;;;;;;;33.00;30.75;;;;;37.43;32.86;100472.66;144157;609;133014;-84
2021/07/01 06:54:37;;;;;;;;;30.00;27.67;;;;;37.69;32.15;100462.59;144170;635;132012;-84
2021/07/01 06:57:08;;;;;;;;;24.33;23.67;;;;;37.98;32.59;100451.72;144157;573;132018;-84
2021/07/01 06:59:39;;;;;;;;;23.67;22.33;;;;;38.18;31.55;100455.25;144158;571;131020;-83
2021/07/01 07:02:12;;;;;;;;;22.33;21.67;;;;;38.83;30.31;100460.87;144153;574;132018;-84
2021/07/01 07:04:42;;;;;;;;;24.00;23.33;;;;;38.71;31.37;100457.13;144177;575;132010;-83
2021/07/01 07:07:13;;;;;;;;;21.33;20.00;;;;;38.70;30.86;100454.66;144152;579;132018;-84
2021/07/01 07:09:44;;;;;;;;;22.67;21.67;;;;;38.50;32.09;100455.69;144166;605;132012;-83
2021/07/01 07:12:14;;;;;;;;;23.67;20.00;;;;;38.44;33.03;100457.19;144157;661;131907;-84
2021/07/01 07:14:44;;;;;;;;;20.67;20.67;;;;;38.40;32.85;100455.50;144171;653;132010;-83
2021/07/01 07:17:14;;;;;;;;;24.00;21.67;;;;;38.44;32.73;100456.38;144162;604;132907;-75
2021/07/01 07:19:48;;;;;;;;;22.33;21.67;;;;;38.49;32.83;100454.06;144174;634;132021;-74
2021/07/01 07:22:20;;;;;;;;;22.00;21.33;;;;;38.41;32.95;100443.00;144157;575;131907;-82
2021/07/01 07:24:55;;;;;;;;;25.67;24.33;;;;;38.19;33.31;100440.78;144150;592;132012;-82
2021/07/01 07:27:27;;;;;;;;;26.00;26.00;;;;;38.27;33.18;100433.19;144150;571;132907;-81
2021/07/01 07:29:59;;;;;;;;;30.00;28.33;;;;;38.41;33.59;100423.25;144178;619;131012;-79
2021/07/01 07:32:31;;;;;;;;;24.00;24.00;;;;;38.40;32.20;100418.78;144155;565;131907;-81
2021/07/01 07:35:01;;;;;;;;;19.67;19.33;;;;;38.43;31.88;100427.31;144174;652;131021;-81
2021/07/01 07:37:31;;;;;;;;;22.00;22.00;;;;;38.47;32.58;100411.25;144160;580;131016;-81
2021/07/01 07:40:04;;;;;;;;;25.33;25.33;;;;;38.60;32.63;100405.31;144178;580;131020;-80
2021/07/01 07:42:34;;;;;;;;;26.00;25.00;;;;;38.74;31.98;100397.00;144169;618;132907;-81
2021/07/01 07:45:07;;;;;;;;;23.33;22.67;;;;;38.69;32.64;100391.69;144178;587;131020;-81
2021/07/01 07:47:37;;;;;;;;;28.33;28.00;;;;;38.61;32.10;100385.16;144158;648;132907;-84
2021/07/01 07:50:11;;;;;;;;;23.00;22.33;;;;;38.61;32.74;100379.53;144161;598;131021;-81
2021/07/01 07:52:52;;;;;;;;;24.33;24.33;;;;;38.65;31.80;100379.56;144159;589;132907;-80
2021/07/01 07:55:27;;;;;;;;;27.33;25.00;;;;;38.79;33.02;100382.53;144172;590;131022;-81
2021/07/01 07:58:01;;;;;;;;;23.00;23.00;;;;;39.03;32.14;100385.97;144152;609;133016;-80
2021/07/01 08:00:32;;;;;;;;;22.00;22.00;;;;;39.20;31.61;100384.50;144177;608;132012;-81
2021/07/01 08:03:06;;;;;;;;;21.67;21.33;;;;;39.33;30.74;100381.34;144148;582;132907;-82
2021/07/01 08:05:39;;;;;;;;;20.00;20.00;;;;;39.46;31.25;100374.19;144176;564;131021;-81
2021/07/01 08:08:15;;;;;;;;;20.33;19.33;;;;;39.66;30.53;100365.41;144165;608;131907;-75
2021/07/01 08:10:45;;;;;;;;;18.00;17.33;;;;;39.77;29.83;100365.44;144174;583;131020;-79
2021/07/01 08:13:20;;;;;;;;;21.33;21.33;;;;;39.82;28.90;100373.59;144152;569;132012;-79
2021/07/01 08:15:51;;;;;;;;;23.67;23.33;;;;;39.73;30.51;100361.81;144154;673;131020;-78
2021/07/01 08:18:39;;;;;;;;;22.67;22.67;;;;;39.85;30.05;100366.31;144151;655;131907;-78
2021/07/01 08:21:15;;;;;;;;;23.33;22.67;;;;;39.98;29.31;100363.97;144179;576;131020;-78
2021/07/01 08:23:46;;;;;;;;;21.33;20.67;;;;;40.08;28.06;100368.84;144152;580;132018;-78
2021/07/01 08:26:17;;;;;;;;;20.00;19.00;;;;;40.15;28.34;100366.03;144177;590;131020;-78
2021/07/01 08:28:47;;;;;;;;;21.67;21.00;;;;;40.28;27.78;100357.97;144150;679;133021;-78
2021/07/01 08:31:19;;;;;;;;;23.00;23.00;;;;;40.28;27.16;100355.13;144171;628;132012;-79
2021/07/01 08:33:50;;;;;;;;;23.00;22.00;;;;;40.46;26.84;100365.72;144162;643;131907;-78
2021/07/01 08:36:25;;;;;;;;;23.67;23.67;;;;;40.43;26.91;100361.69;144171;570;132012;-79
2021/07/01 08:38:57;;;;;;;;;21.00;19.67;;;;;40.53;26.74;100364.94;144153;563;132906;-80
2021/07/01 08:41:30;;;;;;;;;19.00;19.00;;;;;40.74;27.16;100359.31;144160;617;131020;-78
2021/07/01 08:44:08;;;;;;;;;20.00;19.33;;;;;40.88;26.06;100352.03;144154;710;131021;-80
2021/07/01 08:47:00;;;;;;;;;16.00;15.00;;;;;41.05;23.93;100343.91;144176;569;131020;-80
2021/07/01 08:49:53;;;;;;;;;18.33;17.00;;;;;41.18;22.54;100353.66;144157;577;131016;-79
2021/07/01 08:52:29;;;;;;;;;27.33;21.67;;;;;41.25;22.75;100350.78;144180;572;131020;-81
2021/07/01 08:55:06;;;;;;;;;19.00;19.00;;;;;41.80;22.43;100342.97;144157;586;132012;-82
2021/07/01 08:57:37;;;;;;;;;16.67;15.33;;;;;42.02;19.32;100348.50;144177;602;131021;-81
2021/07/01 09:00:10;;;;;;;;;19.33;19.33;;;;;41.45;20.17;100339.81;144164;643;132012;-81
2021/07/01 09:03:04;;;;;;;;;14.67;14.67;;;;;41.50;19.82;100346.28;144177;585;131022;-80
2021/07/01 09:05:36;;;;;;;;;15.00;15.00;;;;;41.61;19.77;100332.06;144155;596;132021;-81
2021/07/01 09:08:10;;;;;;;;;15.00;14.67;;;;;41.56;19.27;100336.94;144157;569;131020;-80
2021/07/01 09:10:53;;;;;;;;;16.67;16.67;;;;;41.45;20.62;100334.12;144159;579;132907;-82
2021/07/01 09:13:26;;;;;;;;;16.33;16.00;;;;;41.51;21.30;100331.69;144168;596;132010;-80
2021/07/01 09:15:58;;;;;;;;;15.33;14.33;;;;;41.64;20.36;100328.44;144159;590;132020;-80
2021/07/01 09:18:29;;;;;;;;;22.67;18.33;;;;;41.76;18.08;100330.00;144171;577;131021;-80
2021/07/01 09:21:03;;;;;;;;;16.67;15.33;;;;;42.04;19.80;100329.09;144153;566;131016;-80
2021/07/01 09:23:34;;;;;;;;;17.00;16.33;;;;;42.19;20.18;100329.00;144172;565;131020;-80
2021/07/01 09:26:10;;;;;;;;;13.00;13.00;;;;;42.11;19.74;100322.56;144160;590;132020;-80
2021/07/01 09:28:41;;;;;;;;;20.00;17.67;;;;;41.89;20.54;100319.00;144180;656;131022;-78
2021/07/01 09:31:13;;;;;;;;;14.00;13.00;;;;;41.36;19.25;100318.75;144149;589;132014;-80
2021/07/01 09:33:44;;;;;;;;;13.00;12.33;;;;;41.27;19.55;100313.50;144158;588;131022;-79
2021/07/01 09:36:16;;;;;;;;;18.33;16.33;;;;;41.37;18.95;100311.87;144157;587;131906;-81
2021/07/01 09:38:47;;;;;;;;;16.00;16.00;;;;;41.94;19.16;100295.84;144173;615;131020;-80
2021/07/01 09:41:17;;;;;;;;;12.67;12.67;;;;;41.78;18.67;100299.16;144150;678;132907;-79
2021/07/01 09:43:48;;;;;;;;;14.00;14.00;;;;;41.80;17.41;100299.53;144169;576;132010;-80
2021/07/01 09:46:21;;;;;;;;;14.33;14.00;;;;;41.93;18.15;100294.22;144159;569;132018;-80
2021/07/01 09:48:53;;;;;;;;;16.33;16.33;;;;;42.15;18.43;100298.56;144177;583;131020;-80
2021/07/01 09:51:28;;;;;;;;;14.33;14.00;;;;;42.91;16.72;100302.91;144167;687;132021;-78
2021/07/01 09:54:04;;;;;;;;;15.67;14.33;;;;;42.83;17.80;100304.16;144166;566;132012;-80
2021/07/01 09:56:41;;;;;;;;;13.67;13.67;;;;;43.40;15.52;100291.41;144151;570;132907;-80
2021/07/01 09:59:20;;;;;;;;;12.67;12.67;;;;;42.90;15.98;100291.94;144160;602;131020;-78
2021/07/01 10:01:50;;;;;;;;;13.00;12.33;;;;;43.13;15.49;100282.75;144156;627;132907;-79
2021/07/01 10:04:20;;;;;;;;;14.33;14.33;;;;;42.89;15.38;100282.59;144177;564;131021;-79
2021/07/01 10:07:09;;;;;;;;;8.67;8.33;;;;;42.94;14.32;100270.75;144159;573;131906;-79
2021/07/01 10:09:39;;;;;;;;;16.00;12.67;;;;;43.05;15.07;100269.81;144185;582;131022;-79
2021/07/01 10:12:28;;;;;;;;;7.00;7.00;;;;;43.21;14.33;100272.91;144163;564;132907;-79
2021/07/01 10:15:03;;;;;;;;;10.67;10.67;;;;;43.30;13.40;100260.19;144179;619;131020;-78
2021/07/01 10:17:33;;;;;;;;;11.00;11.00;;;;;43.42;13.99;100259.69;144169;564;132018;-80
2021/07/01 10:20:09;;;;;;;;;3.67;3.67;;;;;43.53;14.48;100254.66;144184;564;131012;-80
2021/07/01 10:22:42;;;;;;;;;13.33;13.33;;;;;43.69;15.51;100241.84;144157;580;132020;-79
2021/07/01 10:25:12;;;;;;;;;8.00;7.67;;;;;44.07;14.41;100244.53;144159;565;131020;-78
2021/07/01 10:27:43;;;;;;;;;14.67;14.00;;;;;44.08;13.81;100237.59;144153;643;132907;-79
2021/07/01 10:30:21;;;;;;;;;13.00;12.00;;;;;44.09;14.68;100239.25;144173;597;131020;-80
2021/07/01 10:32:56;;;;;;;;;15.67;15.33;;;;;44.14;15.40;100240.00;144156;574;132907;-78
2021/07/01 10:35:32;;;;;;;;;15.33;15.00;;;;;44.20;15.62;100238.28;144173;584;131023;-79
2021/07/01 10:38:06;;;;;;;;;11.67;11.00;;;;;44.23;14.53;100234.53;144159;580;131907;-79
2021/07/01 10:40:39;;;;;;;;;16.67;15.33;;;;;44.28;14.35;100230.41;144182;582;131012;-79
2021/07/01 10:43:11;;;;;;;;;13.67;12.33;;;;;44.26;13.85;100219.47;144170;599;132014;-80
2021/07/01 10:45:59;;;;;;;;;19.33;18.00;;;;;44.13;13.09;100209.87;144178;575;131020;-81
2021/07/01 10:48:30;;;;;;;;;12.33;12.00;;;;;44.06;13.02;100211.59;144160;577;132020;-80
2021/07/01 10:51:11;;;;;;;;;13.33;12.00;;;;;44.06;13.65;100203.03;144161;595;131012;-79
2021/07/01 10:53:43;;;;;;;;;13.67;10.33;;;;;44.08;12.33;100202.63;144157;743;131907;-82
2021/07/01 10:56:40;;;;;;;;;11.00;9.33;;;;;44.13;12.59;100198.47;144178;564;132010;-79
2021/07/01 10:59:11;;;;;;;;;10.33;9.67;;;;;44.17;11.63;100204.94;144161;665;131907;-80
2021/07/01 11:01:44;;;;;;;;;11.33;10.00;;;;;44.20;11.34;100192.69;144176;593;132010;-79
2021/07/01 11:04:18;;;;;;;;;18.67;14.33;;;;;44.32;11.79;100183.50;144154;598;132018;-78
2021/07/01 11:07:03;;;;;;;;;9.67;9.33;;;;;44.50;11.64;100190.94;144174;651;132012;-80
2021/07/01 11:09:44;;;;;;;;;6.00;6.00;;;;;44.59;11.15;100185.50;144174;577;132907;-80
2021/07/01 11:12:23;;;;;;;;;13.67;11.00;;;;;44.72;11.54;100182.00;144178;702;131021;-79
2021/07/01 11:14:57;;;;;;;;;13.00;10.00;;;;;44.76;10.32;100180.69;144164;600;131016;-78
2021/07/01 11:17:35;;;;;;;;;5.33;4.33;;;;;45.08;10.88;100173.56;144169;582;132010;-79
2021/07/01 11:20:22;;;;;;;;;13.00;9.00;;;;;44.73;10.84;100167.28;144157;618;131016;-73
2021/07/01 11:22:56;;;;;;;;;11.33;9.67;;;;;44.76;10.34;100162.78;144185;599;131022;-81
2021/07/01 11:25:34;;;;;;;;;11.00;11.00;;;;;44.95;10.56;100159.13;144153;611;132018;-80
2021/07/01 11:28:23;;;;;;;;;11.00;11.00;;;;;44.89;10.70;100166.56;144179;615;132008;-79